Nikolai Kuropatkin — UFOM — position and weather

sailwx.info

Track history (hours):
 
Tides and Currents Weather Stations Pressure Air Temp Water Temp Dewpoint Dewpoint Depression Visibility Wind Speed Wind Dir Waves Ship Positions

Oceanographic research ship Nikolai Kuropatkin (Russia)

Detailed information on ship capabilities available from University of Delaware's Ocean Information Center.

Last reported at 2017-Apr-24 15:06 UTC. Time now 2017-May-24 15:23 UTC.
Position N 38°56' E 121°37'.
Warning: this ship's position is 30 days out of date.

Length 94 m; draft 6 m.

Type: Fishing. MMSI: 273219500.

Date/timePositionNaut miles runAvg speedWind from/ knotsBaromVisibWave heightAir tempDewpointWater temp
2017-Apr-24 15:06N 38°56' E 121°37'0 0.0
2017-Apr-24 14:55N 38°56' E 121°37'0 0.9
2017-Apr-24 14:30N 38°56' E 121°37'8 7.9
2017-Apr-24 13:26N 38°54' E 121°47'4 8.6
2017-Apr-24 13:00N 38°50' E 121°49'510.4
2017-Apr-24 12:30N 38°50' E 121°56'  
2017-Apr-20 11:55N 38°52' E 122°01'511.4
2017-Apr-20 11:30N 38°48' E 122°00'611.9
2017-Apr-20 11:00N 38°42' E 121°60'612.2
2017-Apr-20 10:30N 38°36' E 122°02'612.2
2017-Apr-20 10:00N 38°30' E 122°05'612.2
2017-Apr-20 09:29N 38°25' E 122°09'612.3
2017-Apr-20 09:00N 38°20' E 122°14'  
Track history (hours):
 
Tides and Currents Weather Stations Pressure Air Temp Water Temp Dewpoint Dewpoint Depression Visibility Wind Speed Wind Dir Waves Ship Positions

Oceanographic research ship Nikolai Kuropatkin (Russia)

Detailed information on ship capabilities available from University of Delaware's Ocean Information Center.

Last reported at 2017-Apr-24 15:06 UTC. Time now 2017-May-24 15:23 UTC.
Position N 38°56' E 121°37'.
Warning: this ship's position is 30 days out of date.

Length 94 m; draft 6 m.

Type: Fishing. MMSI: 273219500.

Date/timePositionNaut miles runAvg speedWind from/ knotsBaromVisibWave heightAir tempDewpointWater temp
2017-Apr-24 15:06N 38°56' E 121°37'0 0.0
2017-Apr-24 14:55N 38°56' E 121°37'0 0.9
2017-Apr-24 14:30N 38°56' E 121°37'8 7.9
2017-Apr-24 13:26N 38°54' E 121°47'4 8.6
2017-Apr-24 13:00N 38°50' E 121°49'510.4
2017-Apr-24 12:30N 38°50' E 121°56'  
2017-Apr-20 11:55N 38°52' E 122°01'511.4
2017-Apr-20 11:30N 38°48' E 122°00'611.9
2017-Apr-20 11:00N 38°42' E 121°60'612.2
2017-Apr-20 10:30N 38°36' E 122°02'612.2
2017-Apr-20 10:00N 38°30' E 122°05'612.2
2017-Apr-20 09:29N 38°25' E 122°09'612.3
2017-Apr-20 09:00N 38°20' E 122°14'  

Dump ship's entire track history